This is the latest recevied weather packets stored in our database for station/object N2RDT. If no packets are shown the sender has not sent any weather packets the latest 10 day(s).
| Time | Temp. | Humidity | Pressure | Rain* | Wind** | Luminosity | Snow |
|---|---|---|---|---|---|---|---|
| 1777908130 | 21.11° C | 48% | 1017.1 hPa | 0 mm | - | 850 W/m² | - |
| 1777907826 | 20.56° C | 52% | 1017 hPa | 0 mm | - | 835 W/m² | - |
| 1777907522 | 19.44° C | 55% | 1017 hPa | 0 mm | - | 832 W/m² | - |
| 1777907218 | 20.56° C | 48% | 1017.3 hPa | 0 mm | - | 819 W/m² | - |
| 1777906915 | 20° C | 51% | 1017.1 hPa | 0 mm | - | 805 W/m² | - |
| 1777906613 | 20.56° C | 48% | 1017.4 hPa | 0 mm | - | 796 W/m² | - |
| 1777906308 | 20° C | 54% | 1017.3 hPa | 0 mm | - | 782 W/m² | - |
| 1777906006 | 20° C | 54% | 1017 hPa | 0 mm | - | 794 W/m² | - |
| 1777905702 | 20° C | 57% | 1017.2 hPa | 0 mm | - | 668 W/m² | - |
| 1777905398 | 19.44° C | 56% | 1017.6 hPa | 0 mm | - | 628 W/m² | - |
| 1777905096 | 18.89° C | 56% | 1017.5 hPa | 0 mm | - | 748 W/m² | - |
| 1777904793 | 18.89° C | 56% | 1017.5 hPa | 0 mm | - | 709 W/m² | - |
| 1777904491 | 18.89° C | 58% | 1017.6 hPa | 0 mm | - | 691 W/m² | - |
| 1777904187 | 17.78° C | 62% | 1017.3 hPa | 0 mm | - | 712 W/m² | - |
| 1777903884 | 17.78° C | 60% | 1017.4 hPa | 0 mm | - | 677 W/m² | - |
| 1777903581 | 17.78° C | 58% | 1017.4 hPa | 0 mm | - | 650 W/m² | - |
| 1777903277 | 17.78° C | 60% | 1017.4 hPa | 0 mm | - | 627 W/m² | - |
| 1777902974 | 17.22° C | 64% | 1017.4 hPa | 0 mm | - | 639 W/m² | - |
| 1777902670 | 16.67° C | 63% | 1017.4 hPa | 0 mm | - | 609 W/m² | - |
| 1777902368 | 16.67° C | 63% | 1017.3 hPa | 0 mm | - | 570 W/m² | - |
| 1777902064 | 16.67° C | 63% | 1017.5 hPa | 0 mm | - | 550 W/m² | - |
| 1777901763 | 16.11° C | 66% | 1017.4 hPa | 0 mm | - | 533 W/m² | - |
| 1777901459 | 16.11° C | 66% | 1017.3 hPa | 0 mm | - | 513 W/m² | - |
| 1777901157 | 15.56° C | 68% | 1017.6 hPa | 0 mm | - | 495 W/m² | - |
| 1777900855 | 15° C | 70% | 1017.5 hPa | 0 mm | - | 487 W/m² | - |
* Rain latest hour (hover to see other rain measurements)
** Current wind speed in m/s (hover to see current wind gust speed)